sensor_id;sensor_type;location;lat;lon;timestamp;pressure;altitude;pressure_sealevel;temperature;humidity
24422;BME280;12600;53.326;-6.298;2022-08-11T00:02:00;101987.88;;;23.06;50.35
24422;BME280;12600;53.326;-6.298;2022-08-11T00:04:35;101995.00;;;23.03;50.59
24422;BME280;12600;53.326;-6.298;2022-08-11T00:07:06;101992.47;;;22.98;50.52
24422;BME280;12600;53.326;-6.298;2022-08-11T00:09:37;101990.88;;;22.97;50.32
24422;BME280;12600;53.326;-6.298;2022-08-11T00:12:16;101987.28;;;22.97;50.48
24422;BME280;12600;53.326;-6.298;2022-08-11T00:14:47;101990.88;;;22.97;50.28
24422;BME280;12600;53.326;-6.298;2022-08-11T00:17:29;101975.69;;;22.95;50.62
24422;BME280;12600;53.326;-6.298;2022-08-11T00:20:05;101976.81;;;22.94;50.58
24422;BME280;12600;53.326;-6.298;2022-08-11T00:22:50;101977.50;;;22.87;50.57
24422;BME280;12600;53.326;-6.298;2022-08-11T00:25:20;101973.16;;;22.89;50.44
24422;BME280;12600;53.326;-6.298;2022-08-11T00:27:49;101968.44;;;22.78;50.85
24422;BME280;12600;53.326;-6.298;2022-08-11T00:30:21;101988.16;;;22.85;50.73
24422;BME280;12600;53.326;-6.298;2022-08-11T00:32:55;101982.03;;;22.79;50.92
24422;BME280;12600;53.326;-6.298;2022-08-11T00:35:30;101989.94;;;22.77;51.13
24422;BME280;12600;53.326;-6.298;2022-08-11T00:38:33;101979.06;;;22.72;51.71
24422;BME280;12600;53.326;-6.298;2022-08-11T00:41:28;101976.66;;;22.71;51.60
24422;BME280;12600;53.326;-6.298;2022-08-11T00:44:13;101984.53;;;22.69;51.85
24422;BME280;12600;53.326;-6.298;2022-08-11T00:46:56;101986.81;;;22.63;51.68
24422;BME280;12600;53.326;-6.298;2022-08-11T00:49:42;101978.72;;;22.58;52.28
24422;BME280;12600;53.326;-6.298;2022-08-11T00:52:28;101983.03;;;22.55;52.56
24422;BME280;12600;53.326;-6.298;2022-08-11T00:55:43;101980.75;;;22.45;52.77
24422;BME280;12600;53.326;-6.298;2022-08-11T01:02:17;101976.09;;;22.33;52.42
24422;BME280;12600;53.326;-6.298;2022-08-11T01:08:45;101967.53;;;22.26;52.71
24422;BME280;12600;53.326;-6.298;2022-08-11T01:12:03;101971.03;;;22.23;53.14
24422;BME280;12600;53.326;-6.298;2022-08-11T01:18:49;101977.09;;;22.13;53.31
24422;BME280;12600;53.326;-6.298;2022-08-11T01:22:05;101966.59;;;22.06;53.50
24422;BME280;12600;53.326;-6.298;2022-08-11T01:32:37;101971.63;;;21.89;54.24
24422;BME280;12600;53.326;-6.298;2022-08-11T01:35:34;101982.75;;;21.89;54.21
24422;BME280;12600;53.326;-6.298;2022-08-11T01:39:05;101981.88;;;21.85;53.82
24422;BME280;12600;53.326;-6.298;2022-08-11T01:42:23;101976.53;;;21.79;53.37
24422;BME280;12600;53.326;-6.298;2022-08-11T01:45:28;101970.31;;;21.70;53.48
24422;BME280;12600;53.326;-6.298;2022-08-11T01:48:06;101954.81;;;21.57;53.93
24422;BME280;12600;53.326;-6.298;2022-08-11T01:51:07;101979.81;;;21.69;54.64
24422;BME280;12600;53.326;-6.298;2022-08-11T01:53:56;101973.03;;;21.55;54.91
24422;BME280;12600;53.326;-6.298;2022-08-11T01:59:31;101944.94;;;21.32;54.44
24422;BME280;12600;53.326;-6.298;2022-08-11T02:02:22;101978.59;;;21.55;54.49
24422;BME280;12600;53.326;-6.298;2022-08-11T02:08:48;101989.72;;;21.55;54.33
24422;BME280;12600;53.326;-6.298;2022-08-11T02:11:24;101981.97;;;21.48;54.48
24422;BME280;12600;53.326;-6.298;2022-08-11T02:14:26;101990.66;;;21.46;55.12
24422;BME280;12600;53.326;-6.298;2022-08-11T02:17:14;101980.38;;;21.35;55.17
24422;BME280;12600;53.326;-6.298;2022-08-11T02:19:56;101984.06;;;21.27;55.50
24422;BME280;12600;53.326;-6.298;2022-08-11T02:22:53;101987.44;;;21.20;55.53
24422;BME280;12600;53.326;-6.298;2022-08-11T02:26:11;101976.44;;;21.11;55.79
24422;BME280;12600;53.326;-6.298;2022-08-11T02:28:54;101979.22;;;20.99;56.02
24422;BME280;12600;53.326;-6.298;2022-08-11T02:31:39;101983.28;;;21.02;55.95
24422;BME280;12600;53.326;-6.298;2022-08-11T02:34:50;101977.72;;;21.02;55.97
24422;BME280;12600;53.326;-6.298;2022-08-11T02:37:40;101981.53;;;20.97;56.08
24422;BME280;12600;53.326;-6.298;2022-08-11T02:40:26;101981.53;;;20.97;56.08
24422;BME280;12600;53.326;-6.298;2022-08-11T02:43:12;101984.31;;;20.97;56.44
24422;BME280;12600;53.326;-6.298;2022-08-11T02:45:53;101960.94;;;20.86;55.97
24422;BME280;12600;53.326;-6.298;2022-08-11T02:48:38;101970.44;;;20.97;55.98
24422;BME280;12600;53.326;-6.298;2022-08-11T02:51:38;101979.00;;;21.04;56.53
24422;BME280;12600;53.326;-6.298;2022-08-11T02:54:16;101966.72;;;21.05;55.89
24422;BME280;12600;53.326;-6.298;2022-08-11T02:56:56;101963.00;;;21.01;55.68
24422;BME280;12600;53.326;-6.298;2022-08-11T02:59:42;101972.97;;;21.02;56.10
24422;BME280;12600;53.326;-6.298;2022-08-11T03:02:49;101963.47;;;21.03;56.24
24422;BME280;12600;53.326;-6.298;2022-08-11T03:05:36;101964.16;;;21.00;56.17
24422;BME280;12600;53.326;-6.298;2022-08-11T03:08:28;101966.72;;;20.93;56.25
24422;BME280;12600;53.326;-6.298;2022-08-11T03:11:08;101969.03;;;20.91;55.95
24422;BME280;12600;53.326;-6.298;2022-08-11T03:14:11;101961.53;;;20.79;56.80
24422;BME280;12600;53.326;-6.298;2022-08-11T03:17:15;101974.25;;;20.80;56.99
24422;BME280;12600;53.326;-6.298;2022-08-11T03:20:05;101972.16;;;20.77;57.22
24422;BME280;12600;53.326;-6.298;2022-08-11T03:22:50;101965.69;;;20.73;57.24
24422;BME280;12600;53.326;-6.298;2022-08-11T03:25:28;101956.75;;;20.67;57.09
24422;BME280;12600;53.326;-6.298;2022-08-11T03:28:11;101970.41;;;20.73;56.79
24422;BME280;12600;53.326;-6.298;2022-08-11T03:30:51;101967.66;;;20.73;56.33
24422;BME280;12600;53.326;-6.298;2022-08-11T03:33:27;101949.13;;;20.64;56.43
24422;BME280;12600;53.326;-6.298;2022-08-11T03:39:54;101953.88;;;20.64;56.55
24422;BME280;12600;53.326;-6.298;2022-08-11T03:42:33;101953.41;;;20.62;56.62
24422;BME280;12600;53.326;-6.298;2022-08-11T03:45:22;101955.69;;;20.60;56.81
24422;BME280;12600;53.326;-6.298;2022-08-11T03:48:18;101948.03;;;20.45;57.73
24422;BME280;12600;53.326;-6.298;2022-08-11T03:51:06;101954.81;;;20.35;58.94
24422;BME280;12600;53.326;-6.298;2022-08-11T03:54:04;101952.25;;;20.18;59.38
24422;BME280;12600;53.326;-6.298;2022-08-11T04:00:37;101948.97;;;20.03;60.16
24422;BME280;12600;53.326;-6.298;2022-08-11T04:04:11;101951.81;;;19.95;60.56
24422;BME280;12600;53.326;-6.298;2022-08-11T04:07:22;101949.47;;;19.84;60.63
24422;BME280;12600;53.326;-6.298;2022-08-11T04:10:31;101952.53;;;19.71;60.75
24422;BME280;12600;53.326;-6.298;2022-08-11T04:14:03;101945.91;;;19.63;61.03
24422;BME280;12600;53.326;-6.298;2022-08-11T04:21:04;101938.78;;;19.53;60.89
24422;BME280;12600;53.326;-6.298;2022-08-11T04:24:13;101945.09;;;19.63;59.94
24422;BME280;12600;53.326;-6.298;2022-08-11T04:30:29;101930.88;;;19.64;60.04
24422;BME280;12600;53.326;-6.298;2022-08-11T04:33:40;101935.78;;;19.67;59.63
24422;BME280;12600;53.326;-6.298;2022-08-11T04:37:09;101940.63;;;19.70;60.23
24422;BME280;12600;53.326;-6.298;2022-08-11T04:44:17;101944.81;;;19.76;59.98
24422;BME280;12600;53.326;-6.298;2022-08-11T04:47:09;101938.19;;;19.69;60.30
24422;BME280;12600;53.326;-6.298;2022-08-11T04:50:33;101940.25;;;19.60;59.92
24422;BME280;12600;53.326;-6.298;2022-08-11T04:53:55;101950.06;;;19.57;60.00
24422;BME280;12600;53.326;-6.298;2022-08-11T04:56:46;101929.03;;;19.47;60.11
24422;BME280;12600;53.326;-6.298;2022-08-11T04:59:58;101948.59;;;19.51;60.65
24422;BME280;12600;53.326;-6.298;2022-08-11T05:03:21;101898.03;;;19.12;61.25
24422;BME280;12600;53.326;-6.298;2022-08-11T05:06:43;101928.31;;;19.38;60.82
24422;BME280;12600;53.326;-6.298;2022-08-11T05:09:34;101905.81;;;19.19;61.10
24422;BME280;12600;53.326;-6.298;2022-08-11T05:12:35;101953.19;;;19.47;60.66
24422;BME280;12600;53.326;-6.298;2022-08-11T05:15:12;101961.03;;;19.45;60.48
24422;BME280;12600;53.326;-6.298;2022-08-11T05:18:16;101966.44;;;19.41;60.57
24422;BME280;12600;53.326;-6.298;2022-08-11T05:21:09;101969.22;;;19.41;60.36
24422;BME280;12600;53.326;-6.298;2022-08-11T05:24:06;101974.91;;;19.45;60.81
24422;BME280;12600;53.326;-6.298;2022-08-11T05:26:54;101962.38;;;19.39;60.00
24422;BME280;12600;53.326;-6.298;2022-08-11T05:29:46;101968.53;;;19.44;60.48
24422;BME280;12600;53.326;-6.298;2022-08-11T05:32:37;101969.34;;;19.45;60.88
24422;BME280;12600;53.326;-6.298;2022-08-11T05:35:35;101971.16;;;19.41;61.01
24422;BME280;12600;53.326;-6.298;2022-08-11T05:38:29;101971.72;;;19.34;61.22
24422;BME280;12600;53.326;-6.298;2022-08-11T05:41:20;101974.34;;;19.31;61.16
24422;BME280;12600;53.326;-6.298;2022-08-11T05:44:08;101973.19;;;19.32;61.28
24422;BME280;12600;53.326;-6.298;2022-08-11T05:46:57;101980.97;;;19.38;61.54
24422;BME280;12600;53.326;-6.298;2022-08-11T05:49:49;101974.28;;;19.39;61.07
24422;BME280;12600;53.326;-6.298;2022-08-11T05:52:45;101968.72;;;19.39;60.99
24422;BME280;12600;53.326;-6.298;2022-08-11T05:55:40;101988.56;;;19.50;61.33
24422;BME280;12600;53.326;-6.298;2022-08-11T05:58:36;101993.41;;;19.53;60.98
24422;BME280;12600;53.326;-6.298;2022-08-11T06:01:11;101987.53;;;19.54;60.99
24422;BME280;12600;53.326;-6.298;2022-08-11T06:03:44;101983.59;;;19.55;61.42
24422;BME280;12600;53.326;-6.298;2022-08-11T06:06:36;101978.28;;;19.50;61.43
24422;BME280;12600;53.326;-6.298;2022-08-11T06:09:12;101970.28;;;19.49;61.02
24422;BME280;12600;53.326;-6.298;2022-08-11T06:11:42;101984.75;;;19.54;61.42
24422;BME280;12600;53.326;-6.298;2022-08-11T06:14:13;101986.69;;;19.63;61.39
24422;BME280;12600;53.326;-6.298;2022-08-11T06:16:47;101988.31;;;19.64;61.50
24422;BME280;12600;53.326;-6.298;2022-08-11T06:19:21;101992.69;;;19.65;61.70
24422;BME280;12600;53.326;-6.298;2022-08-11T06:21:52;101991.88;;;19.64;61.54
24422;BME280;12600;53.326;-6.298;2022-08-11T06:24:21;101993.66;;;19.69;61.55
24422;BME280;12600;53.326;-6.298;2022-08-11T06:26:52;101996.25;;;19.74;61.43
24422;BME280;12600;53.326;-6.298;2022-08-11T06:29:48;101990.63;;;19.82;61.41
24422;BME280;12600;53.326;-6.298;2022-08-11T06:32:28;101986.34;;;19.85;61.46
24422;BME280;12600;53.326;-6.298;2022-08-11T06:35:18;101990.66;;;19.95;61.31
24422;BME280;12600;53.326;-6.298;2022-08-11T06:38:05;101993.09;;;19.96;61.20
24422;BME280;12600;53.326;-6.298;2022-08-11T06:40:50;101990.13;;;20.01;61.13
24422;BME280;12600;53.326;-6.298;2022-08-11T06:43:49;101977.03;;;19.90;61.23
24422;BME280;12600;53.326;-6.298;2022-08-11T06:46:27;101980.38;;;19.95;61.69
24422;BME280;12600;53.326;-6.298;2022-08-11T06:49:00;101990.81;;;19.98;61.48
24422;BME280;12600;53.326;-6.298;2022-08-11T06:51:33;101964.53;;;19.96;61.47
24422;BME280;12600;53.326;-6.298;2022-08-11T06:54:11;101977.22;;;20.18;61.14
24422;BME280;12600;53.326;-6.298;2022-08-11T06:56:44;101985.34;;;20.23;60.76
24422;BME280;12600;53.326;-6.298;2022-08-11T06:59:53;101984.91;;;20.33;61.06
24422;BME280;12600;53.326;-6.298;2022-08-11T07:02:48;101997.22;;;20.44;60.14
24422;BME280;12600;53.326;-6.298;2022-08-11T07:05:24;101973.69;;;20.42;60.06
24422;BME280;12600;53.326;-6.298;2022-08-11T07:09:00;101987.66;;;20.66;60.11
24422;BME280;12600;53.326;-6.298;2022-08-11T07:12:39;101983.16;;;20.74;59.39
24422;BME280;12600;53.326;-6.298;2022-08-11T07:15:31;101992.63;;;20.85;59.57
24422;BME280;12600;53.326;-6.298;2022-08-11T07:18:33;101991.25;;;20.91;58.81
24422;BME280;12600;53.326;-6.298;2022-08-11T07:21:26;101979.94;;;20.96;58.75
24422;BME280;12600;53.326;-6.298;2022-08-11T07:24:39;101997.75;;;21.19;58.58
24422;BME280;12600;53.326;-6.298;2022-08-11T07:27:46;101984.78;;;21.36;58.52
24422;BME280;12600;53.326;-6.298;2022-08-11T07:30:39;101980.78;;;21.61;57.89
24422;BME280;12600;53.326;-6.298;2022-08-11T07:33:11;101993.84;;;22.01;57.72
24422;BME280;12600;53.326;-6.298;2022-08-11T07:36:03;101980.59;;;22.38;57.90
24422;BME280;12600;53.326;-6.298;2022-08-11T07:38:39;101980.50;;;22.82;56.69
24422;BME280;12600;53.326;-6.298;2022-08-11T07:41:21;101980.03;;;23.27;56.52
24422;BME280;12600;53.326;-6.298;2022-08-11T07:43:56;101959.06;;;23.53;52.73
24422;BME280;12600;53.326;-6.298;2022-08-11T07:46:39;101981.78;;;24.09;53.97
24422;BME280;12600;53.326;-6.298;2022-08-11T07:49:30;101972.28;;;24.56;53.70
24422;BME280;12600;53.326;-6.298;2022-08-11T07:52:19;101981.91;;;25.04;52.27
24422;BME280;12600;53.326;-6.298;2022-08-11T07:55:03;101974.06;;;25.44;50.85
24422;BME280;12600;53.326;-6.298;2022-08-11T07:57:37;101977.44;;;25.86;49.87
24422;BME280;12600;53.326;-6.298;2022-08-11T08:00:49;101987.19;;;26.37;47.08
24422;BME280;12600;53.326;-6.298;2022-08-11T08:03:50;101969.41;;;26.59;45.68
24422;BME280;12600;53.326;-6.298;2022-08-11T08:06:37;101979.25;;;26.87;44.51
24422;BME280;12600;53.326;-6.298;2022-08-11T08:09:25;101982.34;;;27.22;44.21
24422;BME280;12600;53.326;-6.298;2022-08-11T08:12:12;101984.44;;;27.40;42.98
24422;BME280;12600;53.326;-6.298;2022-08-11T08:15:07;101974.06;;;27.47;40.30
24422;BME280;12600;53.326;-6.298;2022-08-11T08:17:57;101972.22;;;27.80;41.37
24422;BME280;12600;53.326;-6.298;2022-08-11T08:20:48;101971.09;;;28.09;40.78
24422;BME280;12600;53.326;-6.298;2022-08-11T08:23:20;101975.19;;;28.44;41.01
24422;BME280;12600;53.326;-6.298;2022-08-11T08:26:04;101958.34;;;28.69;40.00
24422;BME280;12600;53.326;-6.298;2022-08-11T08:28:55;101978.03;;;29.12;40.01
24422;BME280;12600;53.326;-6.298;2022-08-11T08:31:47;101975.09;;;29.47;39.28
24422;BME280;12600;53.326;-6.298;2022-08-11T08:34:16;101980.63;;;29.79;38.22
24422;BME280;12600;53.326;-6.298;2022-08-11T08:36:49;101977.25;;;30.17;37.66
24422;BME280;12600;53.326;-6.298;2022-08-11T08:39:20;101970.63;;;30.41;36.85
24422;BME280;12600;53.326;-6.298;2022-08-11T08:41:53;101974.47;;;30.69;36.25
24422;BME280;12600;53.326;-6.298;2022-08-11T08:44:24;101965.31;;;30.99;35.10
24422;BME280;12600;53.326;-6.298;2022-08-11T08:47:13;101964.63;;;31.29;34.77
24422;BME280;12600;53.326;-6.298;2022-08-11T08:50:07;101935.47;;;31.39;33.75
24422;BME280;12600;53.326;-6.298;2022-08-11T08:52:51;101951.56;;;31.72;32.32
24422;BME280;12600;53.326;-6.298;2022-08-11T08:55:22;101962.38;;;32.08;32.70
24422;BME280;12600;53.326;-6.298;2022-08-11T08:57:53;101962.53;;;32.24;32.26
24422;BME280;12600;53.326;-6.298;2022-08-11T09:00:25;101966.06;;;32.36;31.99
24422;BME280;12600;53.326;-6.298;2022-08-11T09:03:07;101965.59;;;32.41;31.57
24422;BME280;12600;53.326;-6.298;2022-08-11T09:05:56;101945.91;;;32.57;31.20
24422;BME280;12600;53.326;-6.298;2022-08-11T09:08:26;101935.44;;;32.77;30.60
24422;BME280;12600;53.326;-6.298;2022-08-11T09:10:59;101946.97;;;33.10;30.38
24422;BME280;12600;53.326;-6.298;2022-08-11T09:13:47;101944.84;;;33.37;30.25
24422;BME280;12600;53.326;-6.298;2022-08-11T09:16:35;101944.19;;;33.50;29.50
24422;BME280;12600;53.326;-6.298;2022-08-11T09:19:07;101931.44;;;33.58;29.81
24422;BME280;12600;53.326;-6.298;2022-08-11T09:21:40;101937.53;;;33.76;29.00
24422;BME280;12600;53.326;-6.298;2022-08-11T09:24:17;101943.19;;;33.96;28.68
24422;BME280;12600;53.326;-6.298;2022-08-11T09:27:06;101938.16;;;34.04;28.82
24422;BME280;12600;53.326;-6.298;2022-08-11T09:29:37;101944.47;;;34.28;28.46
24422;BME280;12600;53.326;-6.298;2022-08-11T09:32:07;101946.09;;;34.45;28.43
24422;BME280;12600;53.326;-6.298;2022-08-11T09:34:38;101939.50;;;34.64;28.44
24422;BME280;12600;53.326;-6.298;2022-08-11T09:37:08;101929.34;;;34.80;27.96
24422;BME280;12600;53.326;-6.298;2022-08-11T09:40:15;101934.59;;;34.97;27.68
24422;BME280;12600;53.326;-6.298;2022-08-11T09:42:58;101920.59;;;34.74;25.95
24422;BME280;12600;53.326;-6.298;2022-08-11T09:45:48;101929.50;;;34.89;26.48
24422;BME280;12600;53.326;-6.298;2022-08-11T09:48:19;101936.38;;;34.91;25.92
24422;BME280;12600;53.326;-6.298;2022-08-11T09:50:53;101931.06;;;34.93;25.85
24422;BME280;12600;53.326;-6.298;2022-08-11T09:53:26;101934.38;;;35.04;25.96
24422;BME280;12600;53.326;-6.298;2022-08-11T09:56:12;101926.91;;;35.11;24.93
24422;BME280;12600;53.326;-6.298;2022-08-11T09:59:01;101939.91;;;35.24;24.73
24422;BME280;12600;53.326;-6.298;2022-08-11T10:01:47;101924.72;;;35.31;24.07
24422;BME280;12600;53.326;-6.298;2022-08-11T10:04:24;101930.44;;;35.44;23.66
24422;BME280;12600;53.326;-6.298;2022-08-11T10:07:03;101923.63;;;35.41;23.46
24422;BME280;12600;53.326;-6.298;2022-08-11T10:09:38;101924.22;;;35.49;23.25
24422;BME280;12600;53.326;-6.298;2022-08-11T10:12:20;101912.50;;;35.59;22.84
24422;BME280;12600;53.326;-6.298;2022-08-11T10:14:55;101923.66;;;35.67;22.34
24422;BME280;12600;53.326;-6.298;2022-08-11T10:17:52;101917.09;;;35.70;22.03
24422;BME280;12600;53.326;-6.298;2022-08-11T10:20:38;101926.41;;;35.83;22.61
24422;BME280;12600;53.326;-6.298;2022-08-11T10:23:12;101918.66;;;35.83;21.93
24422;BME280;12600;53.326;-6.298;2022-08-11T10:25:59;101921.72;;;35.76;22.25
24422;BME280;12600;53.326;-6.298;2022-08-11T10:28:47;101927.19;;;35.71;21.88
24422;BME280;12600;53.326;-6.298;2022-08-11T10:31:37;101924.56;;;35.76;22.05
24422;BME280;12600;53.326;-6.298;2022-08-11T10:34:28;101927.41;;;35.76;21.98
24422;BME280;12600;53.326;-6.298;2022-08-11T10:36:58;101922.56;;;35.90;22.26
24422;BME280;12600;53.326;-6.298;2022-08-11T10:39:31;101905.84;;;35.92;21.92
24422;BME280;12600;53.326;-6.298;2022-08-11T10:42:05;101913.34;;;35.98;22.03
24422;BME280;12600;53.326;-6.298;2022-08-11T10:45:13;101913.22;;;36.14;22.13
24422;BME280;12600;53.326;-6.298;2022-08-11T10:48:10;101912.88;;;36.12;21.91
24422;BME280;12600;53.326;-6.298;2022-08-11T10:50:45;101910.16;;;35.96;22.04
24422;BME280;12600;53.326;-6.298;2022-08-11T10:53:33;101907.09;;;36.03;22.14
24422;BME280;12600;53.326;-6.298;2022-08-11T10:56:22;101907.88;;;35.91;21.95
24422;BME280;12600;53.326;-6.298;2022-08-11T10:59:09;101901.97;;;35.85;21.90
24422;BME280;12600;53.326;-6.298;2022-08-11T11:01:44;101898.09;;;35.92;22.00
24422;BME280;12600;53.326;-6.298;2022-08-11T11:04:15;101912.56;;;36.10;21.42
24422;BME280;12600;53.326;-6.298;2022-08-11T11:06:55;101913.22;;;36.27;21.65
24422;BME280;12600;53.326;-6.298;2022-08-11T11:09:29;101902.03;;;36.33;21.26
24422;BME280;12600;53.326;-6.298;2022-08-11T11:12:08;101904.44;;;36.34;21.12
24422;BME280;12600;53.326;-6.298;2022-08-11T11:14:56;101906.03;;;36.35;20.94
24422;BME280;12600;53.326;-6.298;2022-08-11T11:17:58;101906.50;;;36.34;21.13
24422;BME280;12600;53.326;-6.298;2022-08-11T11:20:37;101892.13;;;36.25;21.35
24422;BME280;12600;53.326;-6.298;2022-08-11T11:23:18;101901.03;;;36.14;20.93
24422;BME280;12600;53.326;-6.298;2022-08-11T11:26:28;101898.84;;;36.31;21.06
24422;BME280;12600;53.326;-6.298;2022-08-11T11:29:30;101900.50;;;36.66;20.71
24422;BME280;12600;53.326;-6.298;2022-08-11T11:32:23;101891.78;;;36.83;20.41
24422;BME280;12600;53.326;-6.298;2022-08-11T11:35:35;101901.69;;;36.91;20.66
24422;BME280;12600;53.326;-6.298;2022-08-11T11:38:07;101910.81;;;36.86;20.68
24422;BME280;12600;53.326;-6.298;2022-08-11T11:40:41;101908.28;;;36.88;20.30
24422;BME280;12600;53.326;-6.298;2022-08-11T11:43:34;101903.28;;;36.92;20.01
24422;BME280;12600;53.326;-6.298;2022-08-11T11:46:07;101903.66;;;37.03;20.03
24422;BME280;12600;53.326;-6.298;2022-08-11T11:48:40;101903.78;;;37.21;20.32
24422;BME280;12600;53.326;-6.298;2022-08-11T11:51:09;101898.91;;;37.00;19.32
24422;BME280;12600;53.326;-6.298;2022-08-11T11:53:44;101907.44;;;37.00;19.11
24422;BME280;12600;53.326;-6.298;2022-08-11T11:56:15;101897.91;;;36.94;19.48
24422;BME280;12600;53.326;-6.298;2022-08-11T11:58:46;101898.50;;;37.11;19.46
24422;BME280;12600;53.326;-6.298;2022-08-11T12:01:39;101889.75;;;37.05;18.86
24422;BME280;12600;53.326;-6.298;2022-08-11T12:04:19;101887.88;;;36.89;19.72
24422;BME280;12600;53.326;-6.298;2022-08-11T12:06:50;101901.44;;;36.98;19.43
24422;BME280;12600;53.326;-6.298;2022-08-11T12:10:00;101892.19;;;36.94;19.38
24422;BME280;12600;53.326;-6.298;2022-08-11T12:12:35;101895.78;;;36.73;19.37
24422;BME280;12600;53.326;-6.298;2022-08-11T12:15:23;101893.72;;;36.73;19.08
24422;BME280;12600;53.326;-6.298;2022-08-11T12:18:17;101886.25;;;36.66;19.07
24422;BME280;12600;53.326;-6.298;2022-08-11T12:20:47;101892.34;;;36.78;19.10
24422;BME280;12600;53.326;-6.298;2022-08-11T12:23:17;101892.69;;;36.80;20.05
24422;BME280;12600;53.326;-6.298;2022-08-11T12:26:05;101892.94;;;37.07;20.04
24422;BME280;12600;53.326;-6.298;2022-08-11T12:28:56;101895.59;;;37.23;19.52
24422;BME280;12600;53.326;-6.298;2022-08-11T12:31:29;101888.69;;;37.34;19.36
24422;BME280;12600;53.326;-6.298;2022-08-11T12:34:10;101877.34;;;37.21;19.00
24422;BME280;12600;53.326;-6.298;2022-08-11T12:36:45;101880.63;;;37.32;19.85
24422;BME280;12600;53.326;-6.298;2022-08-11T12:39:21;101886.63;;;37.34;19.52
24422;BME280;12600;53.326;-6.298;2022-08-11T12:42:34;101883.09;;;37.52;19.64
24422;BME280;12600;53.326;-6.298;2022-08-11T12:45:25;101884.50;;;37.47;20.07
24422;BME280;12600;53.326;-6.298;2022-08-11T12:48:06;101881.41;;;37.33;19.71
24422;BME280;12600;53.326;-6.298;2022-08-11T12:51:21;101878.22;;;37.31;20.00
24422;BME280;12600;53.326;-6.298;2022-08-11T12:54:34;101870.81;;;37.33;19.48
24422;BME280;12600;53.326;-6.298;2022-08-11T12:57:13;101873.06;;;37.38;19.76
24422;BME280;12600;53.326;-6.298;2022-08-11T13:00:07;101877.69;;;37.23;20.04
24422;BME280;12600;53.326;-6.298;2022-08-11T13:02:55;101870.88;;;37.30;20.12
24422;BME280;12600;53.326;-6.298;2022-08-11T13:05:45;101876.47;;;37.55;20.29
24422;BME280;12600;53.326;-6.298;2022-08-11T13:08:20;101868.28;;;37.75;20.18
24422;BME280;12600;53.326;-6.298;2022-08-11T13:10:51;101870.28;;;37.88;19.62
24422;BME280;12600;53.326;-6.298;2022-08-11T13:13:40;101859.75;;;37.75;19.32
24422;BME280;12600;53.326;-6.298;2022-08-11T13:16:28;101869.81;;;37.98;19.33
24422;BME280;12600;53.326;-6.298;2022-08-11T13:19:00;101877.13;;;37.99;19.36
24422;BME280;12600;53.326;-6.298;2022-08-11T13:21:30;101873.50;;;38.08;19.12
24422;BME280;12600;53.326;-6.298;2022-08-11T13:24:01;101871.56;;;37.87;19.32
24422;BME280;12600;53.326;-6.298;2022-08-11T13:26:33;101865.78;;;37.77;19.63
24422;BME280;12600;53.326;-6.298;2022-08-11T13:29:19;101869.25;;;37.72;19.76
24422;BME280;12600;53.326;-6.298;2022-08-11T13:31:53;101864.47;;;37.69;19.65
24422;BME280;12600;53.326;-6.298;2022-08-11T13:34:26;101856.22;;;37.62;19.48
24422;BME280;12600;53.326;-6.298;2022-08-11T13:37:00;101862.25;;;37.64;19.22
24422;BME280;12600;53.326;-6.298;2022-08-11T13:39:34;101865.69;;;37.59;18.95
24422;BME280;12600;53.326;-6.298;2022-08-11T13:42:05;101860.00;;;37.59;19.26
24422;BME280;12600;53.326;-6.298;2022-08-11T13:44:38;101862.53;;;37.57;19.59
24422;BME280;12600;53.326;-6.298;2022-08-11T13:47:12;101849.44;;;37.38;19.33
24422;BME280;12600;53.326;-6.298;2022-08-11T13:49:44;101852.47;;;37.21;19.73
24422;BME280;12600;53.326;-6.298;2022-08-11T13:52:19;101863.34;;;37.14;19.22
24422;BME280;12600;53.326;-6.298;2022-08-11T13:54:53;101855.28;;;37.12;19.55
24422;BME280;12600;53.326;-6.298;2022-08-11T13:57:23;101851.03;;;37.17;19.49
24422;BME280;12600;53.326;-6.298;2022-08-11T14:00:14;101835.09;;;37.29;19.66
24422;BME280;12600;53.326;-6.298;2022-08-11T14:02:56;101844.44;;;37.29;19.24
24422;BME280;12600;53.326;-6.298;2022-08-11T14:05:29;101830.41;;;37.35;19.40
24422;BME280;12600;53.326;-6.298;2022-08-11T14:08:06;101840.56;;;37.36;18.45
24422;BME280;12600;53.326;-6.298;2022-08-11T14:11:02;101842.81;;;37.41;17.99
24422;BME280;12600;53.326;-6.298;2022-08-11T14:14:15;101841.53;;;37.42;18.42
24422;BME280;12600;53.326;-6.298;2022-08-11T14:16:47;101841.78;;;37.57;18.20
24422;BME280;12600;53.326;-6.298;2022-08-11T14:19:23;101845.97;;;37.21;17.69
24422;BME280;12600;53.326;-6.298;2022-08-11T14:21:54;101855.69;;;37.02;18.37
24422;BME280;12600;53.326;-6.298;2022-08-11T14:24:36;101840.66;;;36.45;17.79
24422;BME280;12600;53.326;-6.298;2022-08-11T14:27:10;101844.63;;;36.47;18.05
24422;BME280;12600;53.326;-6.298;2022-08-11T14:30:00;101833.47;;;36.53;18.28
24422;BME280;12600;53.326;-6.298;2022-08-11T14:32:30;101826.66;;;36.50;18.10
24422;BME280;12600;53.326;-6.298;2022-08-11T14:35:00;101834.25;;;36.53;17.92
24422;BME280;12600;53.326;-6.298;2022-08-11T14:37:30;101831.81;;;36.64;18.26
24422;BME280;12600;53.326;-6.298;2022-08-11T14:40:00;101832.53;;;36.90;17.69
24422;BME280;12600;53.326;-6.298;2022-08-11T14:43:00;101829.84;;;36.96;17.65
24422;BME280;12600;53.326;-6.298;2022-08-11T14:46:07;101826.81;;;36.90;17.02
24422;BME280;12600;53.326;-6.298;2022-08-11T14:48:56;101832.22;;;36.97;16.95
24422;BME280;12600;53.326;-6.298;2022-08-11T14:51:27;101819.50;;;36.67;16.57
24422;BME280;12600;53.326;-6.298;2022-08-11T14:53:57;101817.50;;;36.55;16.51
24422;BME280;12600;53.326;-6.298;2022-08-11T14:56:48;101806.75;;;36.25;16.46
24422;BME280;12600;53.326;-6.298;2022-08-11T14:59:18;101813.25;;;36.25;16.23
24422;BME280;12600;53.326;-6.298;2022-08-11T15:01:48;101821.59;;;36.20;15.91
24422;BME280;12600;53.326;-6.298;2022-08-11T15:04:35;101821.34;;;36.27;16.01